Time;durP1;ratioP1;P1;durP2;ratioP2;P2;SDS_P1;SDS_P2;PMS_P1;PMS_P2;Temp;Humidity;BMP_temperature;BMP_pressure;BME280_temperature;BME280_humidity;BME280_pressure;Samples;Min_cycle;Max_cycle;Signal;HPM_P1;HPM_P2
2022/03/26 00:02:10;;;;;;;;;;;6.20;99.90;;;;;;5047570;28;19928;-73
2022/03/26 00:04:36;;;;;;;;;;;6.10;99.90;;;;;;5030840;28;19932;-74
2022/03/26 00:07:01;;;;;;;;;;;6.10;99.90;;;;;;5031943;28;19913;-74
2022/03/26 00:09:27;;;;;;;;;;;6.10;99.90;;;;;;5032363;28;19917;-74
2022/03/26 00:11:52;;;;;;;;;;;6.10;99.90;;;;;;5032044;28;20447;-74
2022/03/26 00:14:18;;;;;;;;;;;6.10;99.90;;;;;;5032311;28;19956;-74
2022/03/26 00:16:43;;;;;;;;;;;6.00;99.90;;;;;;5031817;28;19909;-74
2022/03/26 00:19:09;;;;;;;;;;;6.00;99.90;;;;;;5030672;28;19917;-73
2022/03/26 00:21:34;;;;;;;;;;;6.00;99.90;;;;;;5031938;28;19909;-74
2022/03/26 00:24:00;;;;;;;;;;;6.00;99.90;;;;;;5030423;28;19948;-74
2022/03/26 00:26:26;;;;;;;;;;;6.00;99.90;;;;;;5031706;28;19913;-74
2022/03/26 00:28:52;;;;;;;;;;;6.00;99.90;;;;;;5032123;28;20413;-74
2022/03/26 00:31:17;;;;;;;;;;;6.00;99.90;;;;;;5031788;28;19917;-75
2022/03/26 00:33:43;;;;;;;;;;;5.90;99.90;;;;;;5031822;28;20377;-74
2022/03/26 00:36:09;;;;;;;;;;;6.00;99.90;;;;;;5030419;28;19909;-74
2022/03/26 00:38:34;;;;;;;;;;;5.90;99.90;;;;;;5030161;28;19918;-74
2022/03/26 00:41:00;;;;;;;;;;;5.80;99.90;;;;;;5031729;28;19909;-74
2022/03/26 00:43:25;;;;;;;;;;;5.70;99.90;;;;;;5031544;28;19959;-73
2022/03/26 00:45:51;;;;;;;;;;;5.80;99.90;;;;;;5032112;28;20414;-75
2022/03/26 00:48:17;;;;;;;;;;;6.00;99.90;;;;;;5031501;28;19924;-75
2022/03/26 00:50:43;;;;;;;;;;;5.80;99.90;;;;;;5030159;28;19913;-74
2022/03/26 00:53:09;;;;;;;;;;;5.90;99.90;;;;;;5031573;28;19917;-75
2022/03/26 00:55:34;;;;;;;;;;;5.90;99.90;;;;;;5031628;28;19916;-75
2022/03/26 00:58:00;;;;;;;;;;;5.90;99.90;;;;;;5030227;28;19924;-74
2022/03/26 01:00:27;;;;;;;;;;;5.90;99.90;;;;;;5032899;28;19909;-75
2022/03/26 01:02:52;;;;;;;;;;;5.90;99.90;;;;;;5035570;28;19913;-74
2022/03/26 01:05:18;;;;;;;;;;;6.00;99.90;;;;;;5033970;28;19925;-75
2022/03/26 01:07:43;;;;;;;;;;;6.00;99.90;;;;;;5035374;28;20007;-74
2022/03/26 01:10:09;;;;;;;;;;;6.00;99.90;;;;;;5035788;28;19992;-73
2022/03/26 01:12:35;;;;;;;;;;;6.00;99.90;;;;;;5035387;28;19971;-74
2022/03/26 01:15:01;;;;;;;;;;;6.00;99.90;;;;;;5035867;28;20365;-75
2022/03/26 01:17:27;;;;;;;;;;;6.10;99.90;;;;;;5034071;28;19909;-74
2022/03/26 01:19:53;;;;;;;;;;;6.00;99.90;;;;;;5035676;28;19924;-74
2022/03/26 01:22:19;;;;;;;;;;;6.00;99.90;;;;;;5035165;28;19955;-74
2022/03/26 01:24:44;;;;;;;;;;;6.00;99.90;;;;;;5035090;28;19921;-74
2022/03/26 01:27:10;;;;;;;;;;;6.10;99.90;;;;;;5034923;28;20000;-74
2022/03/26 01:29:38;;;;;;;;;;;6.00;99.90;;;;;;5033776;28;19928;-74
2022/03/26 01:32:08;;;;;;;;;;;6.00;99.90;;;;;;5033886;28;19913;-74
2022/03/26 01:34:33;;;;;;;;;;;6.00;99.90;;;;;;5035437;28;20383;-74
2022/03/26 01:37:01;;;;;;;;;;;6.10;99.90;;;;;;5046109;28;19912;-75
2022/03/26 01:39:27;;;;;;;;;;;6.00;99.90;;;;;;5035893;28;20095;-75
2022/03/26 01:41:53;;;;;;;;;;;6.00;99.90;;;;;;5033593;28;19959;-75
2022/03/26 01:44:18;;;;;;;;;;;6.00;99.90;;;;;;5033503;28;19921;-74
2022/03/26 01:46:45;;;;;;;;;;;6.00;99.90;;;;;;5033347;28;19913;-74
2022/03/26 01:49:10;;;;;;;;;;;6.00;99.90;;;;;;5033412;28;19928;-74
2022/03/26 01:51:36;;;;;;;;;;;6.00;99.90;;;;;;5034606;28;19916;-74
2022/03/26 01:54:02;;;;;;;;;;;6.00;99.90;;;;;;5034713;28;19945;-74
2022/03/26 01:56:27;;;;;;;;;;;6.10;99.90;;;;;;5034890;28;20270;-75
2022/03/26 01:58:53;;;;;;;;;;;6.00;99.90;;;;;;5034730;28;20237;-74
2022/03/26 02:01:19;;;;;;;;;;;6.10;99.90;;;;;;5049591;28;19913;-73
2022/03/26 02:03:44;;;;;;;;;;;6.10;99.90;;;;;;5034117;28;19979;-75
2022/03/26 02:06:13;;;;;;;;;;;6.10;99.90;;;;;;5049391;28;19916;-74
2022/03/26 02:08:38;;;;;;;;;;;6.20;99.90;;;;;;5049806;28;19917;-73
2022/03/26 02:11:04;;;;;;;;;;;6.10;99.90;;;;;;5033690;28;19909;-73
2022/03/26 02:13:49;;;;;;;;;;;6.10;99.90;;;;;;5034359;28;20324;-73
2022/03/26 02:16:14;;;;;;;;;;;6.00;99.90;;;;;;5034161;28;19909;-73
2022/03/26 02:18:40;;;;;;;;;;;6.10;99.90;;;;;;5034072;28;20016;-74
2022/03/26 02:21:06;;;;;;;;;;;6.00;99.90;;;;;;5034115;28;19956;-74
2022/03/26 02:23:31;;;;;;;;;;;6.00;99.90;;;;;;5034190;28;20369;-73
2022/03/26 02:25:57;;;;;;;;;;;6.00;99.90;;;;;;5033862;28;19920;-74
2022/03/26 02:28:22;;;;;;;;;;;6.00;99.90;;;;;;5033915;28;19925;-74
2022/03/26 02:30:48;;;;;;;;;;;6.00;99.90;;;;;;5032500;28;20285;-73
2022/03/26 02:33:13;;;;;;;;;;;6.00;99.90;;;;;;5033855;28;20276;-74
2022/03/26 02:35:39;;;;;;;;;;;5.90;99.90;;;;;;5049219;28;19909;-73
2022/03/26 02:38:05;;;;;;;;;;;5.90;99.90;;;;;;5049173;28;19924;-74
2022/03/26 02:40:30;;;;;;;;;;;5.90;99.90;;;;;;5033873;28;19948;-75
2022/03/26 02:42:56;;;;;;;;;;;5.90;99.90;;;;;;5033778;28;20956;-74
2022/03/26 02:45:22;;;;;;;;;;;5.90;99.90;;;;;;5032199;28;20151;-74
2022/03/26 02:47:48;;;;;;;;;;;5.90;99.90;;;;;;5033525;28;19920;-74
2022/03/26 02:50:14;;;;;;;;;;;5.90;99.90;;;;;;5048902;28;19913;-74
2022/03/26 02:52:40;;;;;;;;;;;5.90;99.90;;;;;;5033326;28;19935;-74
2022/03/26 02:55:08;;;;;;;;;;;5.80;99.90;;;;;;5033346;28;20002;-74
2022/03/26 02:57:33;;;;;;;;;;;5.90;99.90;;;;;;5033443;28;19997;-73
2022/03/26 02:59:59;;;;;;;;;;;5.80;99.90;;;;;;5033813;28;20004;-73
2022/03/26 03:02:24;;;;;;;;;;;5.80;99.90;;;;;;5033371;28;20284;-74
2022/03/26 03:04:50;;;;;;;;;;;5.80;99.90;;;;;;5031809;28;20004;-74
2022/03/26 03:07:15;;;;;;;;;;;5.70;99.90;;;;;;5048612;28;19921;-74
2022/03/26 03:09:41;;;;;;;;;;;5.70;99.90;;;;;;5031991;28;20115;-74
2022/03/26 03:12:07;;;;;;;;;;;5.70;99.90;;;;;;5032094;28;19913;-74
2022/03/26 03:14:32;;;;;;;;;;;5.70;99.90;;;;;;5033589;28;20299;-75
2022/03/26 03:16:58;;;;;;;;;;;5.60;99.90;;;;;;5048443;28;20007;-74
2022/03/26 03:19:23;;;;;;;;;;;5.70;99.90;;;;;;5048229;28;19983;-75
2022/03/26 03:21:49;;;;;;;;;;;5.60;99.90;;;;;;5032956;28;19948;-74
2022/03/26 03:24:14;;;;;;;;;;;5.60;99.90;;;;;;5032359;28;19925;-73
2022/03/26 03:26:40;;;;;;;;;;;5.60;99.90;;;;;;5032634;28;19975;-74
2022/03/26 03:29:05;;;;;;;;;;;5.60;99.90;;;;;;5033050;28;20273;-74
2022/03/26 03:31:32;;;;;;;;;;;5.70;99.90;;;;;;5032755;28;19936;-74
2022/03/26 03:33:58;;;;;;;;;;;5.50;99.90;;;;;;5033249;28;19921;-75
2022/03/26 03:36:23;;;;;;;;;;;5.50;99.90;;;;;;5032665;28;19909;-74
2022/03/26 03:38:52;;;;;;;;;;;5.60;99.90;;;;;;5032955;28;19917;-74
2022/03/26 03:41:17;;;;;;;;;;;5.50;99.90;;;;;;5031381;28;19910;-74
2022/03/26 03:43:43;;;;;;;;;;;5.50;99.90;;;;;;5032715;28;19928;-74
2022/03/26 03:46:09;;;;;;;;;;;5.50;99.90;;;;;;5047708;28;19909;-74
2022/03/26 03:48:34;;;;;;;;;;;5.50;99.90;;;;;;5031119;28;19917;-74
2022/03/26 03:51:00;;;;;;;;;;;5.40;99.90;;;;;;5030990;28;19909;-75
2022/03/26 03:53:25;;;;;;;;;;;5.40;99.90;;;;;;5032391;28;19913;-74
2022/03/26 03:55:51;;;;;;;;;;;5.50;99.90;;;;;;5031035;28;19928;-75
2022/03/26 03:58:16;;;;;;;;;;;5.40;99.90;;;;;;5047606;28;19913;-74
2022/03/26 04:00:42;;;;;;;;;;;5.40;99.90;;;;;;5030893;28;20034;-74
2022/03/26 04:03:07;;;;;;;;;;;5.60;99.90;;;;;;5031853;28;20338;-74
2022/03/26 04:05:33;;;;;;;;;;;5.40;99.90;;;;;;5032248;28;19923;-75
2022/03/26 04:07:58;;;;;;;;;;;5.40;99.90;;;;;;5047417;28;19979;-73
2022/03/26 04:10:24;;;;;;;;;;;5.50;99.90;;;;;;5032316;28;19917;-73
2022/03/26 04:12:49;;;;;;;;;;;5.40;99.90;;;;;;5047415;28;19953;-74
2022/03/26 04:15:15;;;;;;;;;;;5.30;99.90;;;;;;5047152;28;19943;-74
2022/03/26 04:17:41;;;;;;;;;;;5.30;99.90;;;;;;5047122;28;19936;-74
2022/03/26 04:20:08;;;;;;;;;;;5.40;99.90;;;;;;5032036;28;19917;-73
2022/03/26 04:22:34;;;;;;;;;;;5.40;99.90;;;;;;5030451;28;19963;-73
2022/03/26 04:24:59;;;;;;;;;;;5.60;99.90;;;;;;5031762;28;20480;-74
2022/03/26 04:27:25;;;;;;;;;;;5.40;99.90;;;;;;5031646;28;19932;-74
2022/03/26 04:29:51;;;;;;;;;;;5.50;99.90;;;;;;5032022;28;19964;-74
2022/03/26 04:32:16;;;;;;;;;;;5.50;99.90;;;;;;5046801;28;19967;-74
2022/03/26 04:34:42;;;;;;;;;;;5.40;99.90;;;;;;5030222;28;20011;-74
2022/03/26 04:37:07;;;;;;;;;;;5.40;99.90;;;;;;5031497;28;20266;-73
2022/03/26 04:39:33;;;;;;;;;;;5.40;99.90;;;;;;5030295;28;20288;-73
2022/03/26 04:41:59;;;;;;;;;;;5.40;99.90;;;;;;5031898;28;20338;-74
2022/03/26 04:44:24;;;;;;;;;;;5.40;99.90;;;;;;5031646;28;20395;-75
2022/03/26 04:46:50;;;;;;;;;;;5.30;99.90;;;;;;5030002;28;20427;-75
2022/03/26 04:49:15;;;;;;;;;;;5.40;99.90;;;;;;5030417;28;20000;-74
2022/03/26 04:51:41;;;;;;;;;;;5.50;99.90;;;;;;5046827;28;20307;-73
2022/03/26 04:54:07;;;;;;;;;;;5.50;99.90;;;;;;5031486;28;20388;-74
2022/03/26 04:56:32;;;;;;;;;;;5.50;99.90;;;;;;5030119;28;19924;-74
2022/03/26 04:58:58;;;;;;;;;;;5.60;99.90;;;;;;5046924;28;19909;-73
2022/03/26 05:01:23;;;;;;;;;;;5.70;99.90;;;;;;5031816;28;19960;-73
2022/03/26 05:03:49;;;;;;;;;;;5.80;99.90;;;;;;5029801;28;20040;-74
2022/03/26 05:06:15;;;;;;;;;;;6.00;99.90;;;;;;5031589;28;19917;-74
2022/03/26 05:08:40;;;;;;;;;;;6.00;99.90;;;;;;5030133;28;19932;-74
2022/03/26 05:11:06;;;;;;;;;;;6.20;99.90;;;;;;5046756;28;19967;-73
2022/03/26 05:13:32;;;;;;;;;;;6.30;99.90;;;;;;5031239;28;20369;-74
2022/03/26 05:15:57;;;;;;;;;;;6.40;99.90;;;;;;5046631;28;19917;-73
2022/03/26 05:18:23;;;;;;;;;;;6.50;99.90;;;;;;5046442;28;19913;-74
2022/03/26 05:20:48;;;;;;;;;;;6.60;99.90;;;;;;5031482;28;20357;-74
2022/03/26 05:23:14;;;;;;;;;;;6.60;99.90;;;;;;5031418;28;19909;-74
2022/03/26 05:25:40;;;;;;;;;;;6.60;99.90;;;;;;5046558;28;19925;-73
2022/03/26 05:28:05;;;;;;;;;;;6.70;99.90;;;;;;5029535;28;19913;-73
2022/03/26 05:30:31;;;;;;;;;;;6.80;99.90;;;;;;5046386;28;20311;-73
2022/03/26 05:32:57;;;;;;;;;;;6.80;99.90;;;;;;5030913;28;19963;-73
2022/03/26 05:35:23;;;;;;;;;;;6.80;99.90;;;;;;5031262;28;19924;-73
2022/03/26 05:37:49;;;;;;;;;;;7.00;99.90;;;;;;5029920;28;19909;-74
2022/03/26 05:40:16;;;;;;;;;;;7.10;99.90;;;;;;5031151;28;19936;-74
2022/03/26 05:42:42;;;;;;;;;;;7.10;99.90;;;;;;5029604;28;19967;-73
2022/03/26 05:45:08;;;;;;;;;;;7.10;99.90;;;;;;5029540;28;20265;-73
2022/03/26 05:47:35;;;;;;;;;;;7.20;99.90;;;;;;5033764;28;19959;-74
2022/03/26 05:50:01;;;;;;;;;;;7.30;99.90;;;;;;5033208;28;19921;-74
2022/03/26 05:52:27;;;;;;;;;;;7.30;99.90;;;;;;5033384;28;19913;-75
2022/03/26 05:54:52;;;;;;;;;;;7.50;99.90;;;;;;5034870;28;20337;-75
2022/03/26 05:57:21;;;;;;;;;;;7.60;99.90;;;;;;5034649;28;19960;-76
2022/03/26 05:59:48;;;;;;;;;;;7.80;99.90;;;;;;5034776;28;19944;-76
2022/03/26 06:02:14;;;;;;;;;;;7.90;99.90;;;;;;5033320;28;20265;-76
2022/03/26 06:04:43;;;;;;;;;;;7.90;99.90;;;;;;5034212;28;19921;-75
2022/03/26 06:07:09;;;;;;;;;;;8.00;99.90;;;;;;5033374;28;19940;-78
2022/03/26 06:09:35;;;;;;;;;;;8.00;99.90;;;;;;5034906;28;19916;-75
2022/03/26 06:12:01;;;;;;;;;;;8.10;99.90;;;;;;5050204;28;20095;-75
2022/03/26 06:14:26;;;;;;;;;;;8.20;99.90;;;;;;5034652;28;19917;-75
2022/03/26 06:16:52;;;;;;;;;;;8.30;99.90;;;;;;5033185;28;19993;-74
2022/03/26 06:19:18;;;;;;;;;;;8.40;99.80;;;;;;5049673;28;19920;-75
2022/03/26 06:21:43;;;;;;;;;;;8.60;99.70;;;;;;5033121;28;20284;-75
2022/03/26 06:24:09;;;;;;;;;;;8.70;99.30;;;;;;5034395;28;19919;-75
2022/03/26 06:26:39;;;;;;;;;;;8.80;99.20;;;;;;5034815;28;20268;-75
2022/03/26 06:29:05;;;;;;;;;;;8.90;99.00;;;;;;5033056;28;19952;-75
2022/03/26 06:31:30;;;;;;;;;;;9.00;98.70;;;;;;5033376;28;19963;-76
2022/03/26 06:33:56;;;;;;;;;;;9.10;98.60;;;;;;5033034;28;20008;-76
2022/03/26 06:36:22;;;;;;;;;;;9.10;98.50;;;;;;5034726;28;19956;-75
2022/03/26 06:38:48;;;;;;;;;;;9.20;98.60;;;;;;5034301;28;20296;-76
2022/03/26 06:41:14;;;;;;;;;;;9.20;98.30;;;;;;5034317;28;19945;-76
2022/03/26 06:43:40;;;;;;;;;;;9.30;98.20;;;;;;5034195;28;19913;-75
2022/03/26 06:46:05;;;;;;;;;;;9.40;98.10;;;;;;5049309;28;20584;-75
2022/03/26 06:48:32;;;;;;;;;;;9.60;97.90;;;;;;5049114;28;19918;-75
2022/03/26 06:50:58;;;;;;;;;;;9.50;97.90;;;;;;5032480;28;20381;-74
2022/03/26 06:53:24;;;;;;;;;;;9.60;97.90;;;;;;5032057;28;19963;-74
2022/03/26 06:55:50;;;;;;;;;;;9.70;97.70;;;;;;5033675;28;19913;-74
2022/03/26 06:58:15;;;;;;;;;;;9.70;97.40;;;;;;5032105;28;19982;-75
2022/03/26 07:00:41;;;;;;;;;;;9.80;97.70;;;;;;5048933;28;20373;-76
2022/03/26 07:03:07;;;;;;;;;;;10.00;97.40;;;;;;5031809;28;19913;-75
2022/03/26 07:05:32;;;;;;;;;;;10.20;97.10;;;;;;5032278;28;20357;-75
2022/03/26 07:07:58;;;;;;;;;;;10.30;96.90;;;;;;5031911;28;19917;-75
2022/03/26 07:10:23;;;;;;;;;;;10.40;96.60;;;;;;5033359;28;19913;-75
2022/03/26 07:12:49;;;;;;;;;;;10.50;96.60;;;;;;5033349;28;20063;-76
2022/03/26 07:15:15;;;;;;;;;;;10.60;96.60;;;;;;5033250;28;19913;-76
2022/03/26 07:17:44;;;;;;;;;;;10.70;96.10;;;;;;5032255;28;20355;-75
2022/03/26 07:20:11;;;;;;;;;;;10.80;96.20;;;;;;5033418;28;19920;-75
2022/03/26 07:22:37;;;;;;;;;;;10.80;96.10;;;;;;5031832;28;20011;-75
2022/03/26 07:25:04;;;;;;;;;;;11.00;96.00;;;;;;5033012;28;20336;-75
2022/03/26 07:27:31;;;;;;;;;;;11.20;95.70;;;;;;5033060;28;20013;-75
2022/03/26 07:29:56;;;;;;;;;;;11.40;95.40;;;;;;5032767;28;19968;-75
2022/03/26 07:32:23;;;;;;;;;;;11.50;95.30;;;;;;5031591;28;20326;-74
2022/03/26 07:34:48;;;;;;;;;;;11.60;95.00;;;;;;5032623;28;19986;-74
2022/03/26 07:37:14;;;;;;;;;;;11.70;94.90;;;;;;5032618;28;19956;-74
2022/03/26 07:39:40;;;;;;;;;;;11.60;94.90;;;;;;5032498;28;19916;-74
2022/03/26 07:42:06;;;;;;;;;;;11.80;94.80;;;;;;5032647;28;19913;-74
2022/03/26 07:44:32;;;;;;;;;;;11.90;94.50;;;;;;5032890;28;19913;-75
2022/03/26 07:46:57;;;;;;;;;;;11.90;94.40;;;;;;5033033;28;19921;-74
2022/03/26 07:49:23;;;;;;;;;;;12.10;94.10;;;;;;5032752;28;19924;-74
2022/03/26 07:51:49;;;;;;;;;;;12.10;94.00;;;;;;5031693;28;20000;-74
2022/03/26 07:54:15;;;;;;;;;;;12.40;93.80;;;;;;5047833;28;19989;-73
2022/03/26 07:56:40;;;;;;;;;;;12.70;93.50;;;;;;5031173;28;20012;-74
2022/03/26 07:59:06;;;;;;;;;;;12.90;93.10;;;;;;5032398;28;19967;-75
2022/03/26 08:01:32;;;;;;;;;;;13.10;92.60;;;;;;5047743;28;19975;-76
2022/03/26 08:03:58;;;;;;;;;;;13.10;92.60;;;;;;5032296;28;19925;-75
2022/03/26 08:06:24;;;;;;;;;;;13.20;92.30;;;;;;5030897;28;19921;-75
2022/03/26 08:08:49;;;;;;;;;;;13.30;92.00;;;;;;5047770;28;19920;-75
2022/03/26 08:11:15;;;;;;;;;;;13.40;92.00;;;;;;5032410;28;19921;-75
2022/03/26 08:13:41;;;;;;;;;;;13.60;91.50;;;;;;5032298;28;19918;-76
2022/03/26 08:16:08;;;;;;;;;;;13.60;91.40;;;;;;5030614;28;20011;-76
2022/03/26 08:18:34;;;;;;;;;;;13.50;91.10;;;;;;5047383;28;20407;-75
2022/03/26 08:21:00;;;;;;;;;;;13.50;91.00;;;;;;5032035;28;19960;-75
2022/03/26 08:23:25;;;;;;;;;;;13.40;91.10;;;;;;5047450;28;20433;-76
2022/03/26 08:28:35;;;;;;;;;;;13.30;90.80;;;;;;5032202;28;19920;-76
2022/03/26 08:31:01;;;;;;;;;;;13.40;90.50;;;;;;5031972;28;19917;-75
2022/03/26 08:33:26;;;;;;;;;;;13.60;90.40;;;;;;5031570;28;19913;-75
2022/03/26 08:35:52;;;;;;;;;;;13.80;90.00;;;;;;5047185;28;19924;-75
2022/03/26 08:38:18;;;;;;;;;;;13.80;89.70;;;;;;5047216;28;19975;-75
2022/03/26 08:40:44;;;;;;;;;;;13.70;89.70;;;;;;5030506;28;20292;-75
2022/03/26 08:43:10;;;;;;;;;;;13.80;89.40;;;;;;5031878;28;20297;-75
2022/03/26 08:45:36;;;;;;;;;;;13.90;89.00;;;;;;5032264;28;20428;-75
2022/03/26 08:48:01;;;;;;;;;;;14.00;88.70;;;;;;5047405;28;20000;-74
2022/03/26 08:50:27;;;;;;;;;;;14.30;88.50;;;;;;5032020;28;19980;-74
2022/03/26 08:52:53;;;;;;;;;;;14.70;87.50;;;;;;5031984;28;19913;-74
2022/03/26 08:55:19;;;;;;;;;;;14.80;86.90;;;;;;5031539;28;20312;-73
2022/03/26 08:57:45;;;;;;;;;;;15.10;87.20;;;;;;5047147;28;19917;-74
2022/03/26 09:00:12;;;;;;;;;;;15.40;86.20;;;;;;5029975;28;20376;-74
2022/03/26 09:02:38;;;;;;;;;;;15.30;85.90;;;;;;5029998;28;19955;-75
2022/03/26 09:05:07;;;;;;;;;;;14.90;86.70;;;;;;5029907;28;20373;-75
2022/03/26 09:07:33;;;;;;;;;;;14.60;87.60;;;;;;5029791;28;20284;-73
2022/03/26 09:09:58;;;;;;;;;;;14.60;88.80;;;;;;5031304;28;19918;-74
2022/03/26 09:12:24;;;;;;;;;;;14.90;88.20;;;;;;5031205;28;20408;-74
2022/03/26 09:14:50;;;;;;;;;;;15.00;88.20;;;;;;5031252;28;19909;-74
2022/03/26 09:17:16;;;;;;;;;;;15.30;87.80;;;;;;5031306;28;19914;-73
2022/03/26 09:19:41;;;;;;;;;;;15.40;87.80;;;;;;5031135;28;19914;-73
2022/03/26 09:22:07;;;;;;;;;;;15.50;87.40;;;;;;5033902;28;19909;-73
2022/03/26 09:24:33;;;;;;;;;;;15.50;88.00;;;;;;5035163;28;19913;-74
2022/03/26 09:26:58;;;;;;;;;;;15.40;88.20;;;;;;5034830;28;20019;-74
2022/03/26 09:29:24;;;;;;;;;;;15.10;88.90;;;;;;5050356;28;20031;-73
2022/03/26 09:31:50;;;;;;;;;;;15.00;89.60;;;;;;5035297;28;19925;-73
2022/03/26 09:34:15;;;;;;;;;;;14.80;89.90;;;;;;5035093;28;20058;-74
2022/03/26 09:36:44;;;;;;;;;;;14.90;90.20;;;;;;5035559;28;20012;-75
2022/03/26 09:39:10;;;;;;;;;;;15.30;89.90;;;;;;5035170;28;20007;-75
2022/03/26 09:41:36;;;;;;;;;;;15.50;89.20;;;;;;5035540;28;19957;-75
2022/03/26 09:44:02;;;;;;;;;;;15.40;89.90;;;;;;5034978;28;20384;-74
2022/03/26 09:46:28;;;;;;;;;;;15.70;90.40;;;;;;5035209;28;19918;-74
2022/03/26 09:48:54;;;;;;;;;;;16.20;88.80;;;;;;5033529;28;20003;-74
2022/03/26 09:51:24;;;;;;;;;;;16.40;87.90;;;;;;5033305;28;19921;-74
2022/03/26 09:53:51;;;;;;;;;;;16.40;88.60;;;;;;5033577;28;20277;-75
2022/03/26 09:56:18;;;;;;;;;;;16.50;87.90;;;;;;5034955;28;19921;-75
2022/03/26 09:58:43;;;;;;;;;;;16.70;87.20;;;;;;5033746;28;19913;-75
2022/03/26 10:01:10;;;;;;;;;;;16.70;87.70;;;;;;5034954;28;19967;-75
2022/03/26 10:03:39;;;;;;;;;;;16.70;87.00;;;;;;5034242;28;19976;-74
2022/03/26 10:06:07;;;;;;;;;;;16.60;87.20;;;;;;5049625;28;20424;-73
2022/03/26 10:08:37;;;;;;;;;;;16.70;87.20;;;;;;5034141;28;19963;-73
2022/03/26 10:11:03;;;;;;;;;;;16.80;87.10;;;;;;5034475;28;20357;-74
2022/03/26 10:13:38;;;;;;;;;;;16.90;86.70;;;;;;5034179;28;20376;-72
2022/03/26 10:16:08;;;;;;;;;;;16.70;86.80;;;;;;5034627;28;19921;-74
2022/03/26 10:18:35;;;;;;;;;;;16.70;86.80;;;;;;5034192;28;19916;-74
2022/03/26 10:21:02;;;;;;;;;;;16.90;86.40;;;;;;5034055;28;19924;-74
2022/03/26 10:23:28;;;;;;;;;;;16.90;84.80;;;;;;5032761;28;19963;-74
2022/03/26 10:26:04;;;;;;;;;;;16.40;83.80;;;;;;5032865;28;20369;-74
2022/03/26 10:28:32;;;;;;;;;;;16.40;85.10;;;;;;5033944;28;19967;-75
2022/03/26 10:34:09;;;;;;;;;;;16.40;82.30;;;;;;5034089;28;19955;-74
2022/03/26 10:36:38;;;;;;;;;;;16.30;82.10;;;;;;5034221;28;19921;-75
2022/03/26 10:39:05;;;;;;;;;;;16.40;80.30;;;;;;5049119;28;20131;-75
2022/03/26 10:41:32;;;;;;;;;;;16.30;81.20;;;;;;5049437;28;19917;-75
2022/03/26 10:44:13;;;;;;;;;;;16.40;81.30;;;;;;5032565;28;20371;-75
2022/03/26 10:46:43;;;;;;;;;;;16.60;81.60;;;;;;5032530;28;19971;-75
2022/03/26 10:49:09;;;;;;;;;;;16.60;82.00;;;;;;5033654;28;20003;-75
2022/03/26 10:51:36;;;;;;;;;;;16.20;82.80;;;;;;5048955;28;20322;-75
2022/03/26 10:54:08;;;;;;;;;;;15.90;83.40;;;;;;5032166;28;19909;-76
2022/03/26 10:56:34;;;;;;;;;;;15.70;83.30;;;;;;5032470;28;19925;-76
2022/03/26 10:59:00;;;;;;;;;;;15.70;84.20;;;;;;5048813;28;19910;-76
2022/03/26 11:01:26;;;;;;;;;;;15.70;84.80;;;;;;5033594;28;20356;-76
2022/03/26 11:03:51;;;;;;;;;;;16.00;84.70;;;;;;5033134;28;19917;-75
2022/03/26 11:06:19;;;;;;;;;;;16.20;84.20;;;;;;5048524;28;20420;-75
2022/03/26 11:08:47;;;;;;;;;;;16.30;83.00;;;;;;5033315;28;19978;-75
2022/03/26 11:11:14;;;;;;;;;;;16.50;81.70;;;;;;5032099;28;19925;-74
2022/03/26 11:13:46;;;;;;;;;;;16.80;81.30;;;;;;5033469;28;19967;-75
2022/03/26 11:16:22;;;;;;;;;;;17.00;79.80;;;;;;5033750;28;19967;-74
2022/03/26 11:19:14;;;;;;;;;;;16.80;80.40;;;;;;5033120;28;19909;-74
2022/03/26 11:21:52;;;;;;;;;;;16.80;80.80;;;;;;5033715;28;19917;-74
2022/03/26 11:24:41;;;;;;;;;;;16.80;81.40;;;;;;5048698;28;19913;-75
2022/03/26 11:27:15;;;;;;;;;;;16.80;81.10;;;;;;5032863;28;19921;-75
2022/03/26 11:30:03;;;;;;;;;;;16.50;81.10;;;;;;5032658;28;19910;-75
2022/03/26 11:32:43;;;;;;;;;;;16.40;81.40;;;;;;5032863;28;19996;-75
2022/03/26 11:35:14;;;;;;;;;;;16.50;82.00;;;;;;5032865;28;20365;-76
2022/03/26 11:37:54;;;;;;;;;;;16.60;81.70;;;;;;5032835;28;19916;-76
2022/03/26 11:40:43;;;;;;;;;;;16.60;81.10;;;;;;5032855;28;19959;-75
2022/03/26 11:43:14;;;;;;;;;;;16.50;80.70;;;;;;5020680;28;19917;-75
2022/03/26 11:51:20;;;;;;;;;;;16.10;82.10;;;;;;5032745;28;20281;-75
2022/03/26 11:53:48;;;;;;;;;;;16.00;82.40;;;;;;5048019;28;19909;-76
2022/03/26 11:56:32;;;;;;;;;;;16.00;82.00;;;;;;5031223;28;19982;-75
2022/03/26 11:59:16;;;;;;;;;;;16.00;82.10;;;;;;5032556;28;20357;-74
2022/03/26 12:01:44;;;;;;;;;;;16.10;81.40;;;;;;5032346;28;19921;-75
2022/03/26 12:04:16;;;;;;;;;;;16.00;81.20;;;;;;5030678;28;19925;-75
2022/03/26 12:06:49;;;;;;;;;;;16.10;81.00;;;;;;5030970;28;19925;-75
2022/03/26 12:09:34;;;;;;;;;;;16.20;80.40;;;;;;5032153;28;20349;-75
2022/03/26 12:12:15;;;;;;;;;;;16.20;80.20;;;;;;5032508;28;19925;-75
2022/03/26 12:15:00;;;;;;;;;;;16.20;80.60;;;;;;5032813;28;19960;-74
2022/03/26 12:17:42;;;;;;;;;;;16.30;79.80;;;;;;5032157;28;19909;-74
2022/03/26 12:20:20;;;;;;;;;;;16.30;78.60;;;;;;5032012;28;19967;-76
2022/03/26 12:22:48;;;;;;;;;;;16.10;79.30;;;;;;5032208;28;20280;-76
2022/03/26 12:25:16;;;;;;;;;;;16.00;79.40;;;;;;5032040;28;20024;-75
2022/03/26 12:27:43;;;;;;;;;;;16.00;78.90;;;;;;5031840;28;19919;-75
2022/03/26 12:30:09;;;;;;;;;;;16.00;78.80;;;;;;5031949;28;19967;-76
2022/03/26 12:32:36;;;;;;;;;;;16.00;78.80;;;;;;5032025;28;19913;-75
2022/03/26 12:35:04;;;;;;;;;;;16.00;78.20;;;;;;5031712;28;19921;-74
2022/03/26 12:37:30;;;;;;;;;;;15.90;77.90;;;;;;5030380;28;19916;-73
2022/03/26 12:39:56;;;;;;;;;;;15.80;78.50;;;;;;5031616;28;19909;-75
2022/03/26 12:42:23;;;;;;;;;;;15.70;79.30;;;;;;5031697;28;20639;-75
2022/03/26 12:44:52;;;;;;;;;;;15.70;79.30;;;;;;5031612;28;20285;-75
2022/03/26 12:47:25;;;;;;;;;;;15.70;79.40;;;;;;5030553;28;19917;-74
2022/03/26 12:49:54;;;;;;;;;;;15.70;79.40;;;;;;5030048;28;19944;-76
2022/03/26 12:52:21;;;;;;;;;;;15.70;79.50;;;;;;5031507;28;19916;-75
2022/03/26 12:54:57;;;;;;;;;;;15.70;79.60;;;;;;5031506;28;20314;-75
2022/03/26 12:57:24;;;;;;;;;;;15.70;79.80;;;;;;5030152;28;19963;-75
2022/03/26 12:59:56;;;;;;;;;;;15.60;80.00;;;;;;5031421;28;20020;-74
2022/03/26 13:02:22;;;;;;;;;;;15.50;80.50;;;;;;5031546;28;19918;-77
2022/03/26 13:04:51;;;;;;;;;;;15.40;80.70;;;;;;5031216;28;19921;-76
2022/03/26 13:07:17;;;;;;;;;;;15.40;81.10;;;;;;5031242;28;19970;-76
2022/03/26 13:09:42;;;;;;;;;;;15.40;81.30;;;;;;5029942;28;19917;-75
2022/03/26 13:12:08;;;;;;;;;;;15.40;81.40;;;;;;5031563;28;19971;-76
2022/03/26 13:14:35;;;;;;;;;;;15.40;81.90;;;;;;5031671;28;20299;-76
2022/03/26 13:17:04;;;;;;;;;;;15.30;81.80;;;;;;5030327;28;20012;-75
2022/03/26 13:19:33;;;;;;;;;;;15.30;82.20;;;;;;5030008;28;19913;-76
2022/03/26 13:22:01;;;;;;;;;;;15.20;82.20;;;;;;5030403;28;19914;-75
2022/03/26 13:24:27;;;;;;;;;;;15.10;82.60;;;;;;5030015;28;20011;-76
2022/03/26 13:27:03;;;;;;;;;;;15.20;82.70;;;;;;5029975;28;20348;-76
2022/03/26 13:29:30;;;;;;;;;;;15.10;83.30;;;;;;5031290;28;19913;-77
2022/03/26 13:31:59;;;;;;;;;;;15.10;83.00;;;;;;5031100;28;19909;-74
2022/03/26 13:34:28;;;;;;;;;;;15.10;83.30;;;;;;5031217;28;19917;-75
2022/03/26 13:36:54;;;;;;;;;;;16.50;84.50;;;;;;5046694;28;20323;-75
2022/03/26 13:39:21;;;;;;;;;;;15.10;83.90;;;;;;5029976;28;19998;-75
2022/03/26 13:41:48;;;;;;;;;;;15.00;84.10;;;;;;5029572;28;19916;-76
2022/03/26 13:44:14;;;;;;;;;;;15.00;84.20;;;;;;5031225;28;19913;-75
2022/03/26 13:46:39;;;;;;;;;;;15.00;84.20;;;;;;5031128;28;19940;-76
2022/03/26 13:49:05;;;;;;;;;;;15.00;84.40;;;;;;5046424;28;20443;-75
2022/03/26 13:51:37;;;;;;;;;;;15.00;84.70;;;;;;5030944;28;20285;-76
2022/03/26 13:54:04;;;;;;;;;;;15.00;85.50;;;;;;5029746;28;19925;-76
2022/03/26 13:56:31;;;;;;;;;;;15.00;85.20;;;;;;5031013;28;19913;-76
2022/03/26 13:59:00;;;;;;;;;;;14.90;85.40;;;;;;5031509;28;19920;-76
2022/03/26 14:01:26;;;;;;;;;;;15.00;85.60;;;;;;5029540;28;20418;-76
2022/03/26 14:03:53;;;;;;;;;;;15.00;85.70;;;;;;5029520;28;20008;-75
2022/03/26 14:06:19;;;;;;;;;;;14.90;86.00;;;;;;5030809;28;20320;-75
2022/03/26 14:08:47;;;;;;;;;;;14.90;86.10;;;;;;5032893;28;19921;-76
2022/03/26 14:11:14;;;;;;;;;;;14.90;86.40;;;;;;5033105;28;19920;-76
2022/03/26 14:13:40;;;;;;;;;;;14.90;86.50;;;;;;5034902;28;19917;-75
2022/03/26 14:16:05;;;;;;;;;;;14.90;88.20;;;;;;5034309;28;19916;-75
2022/03/26 14:18:31;;;;;;;;;;;14.80;90.20;;;;;;5033185;28;20291;-75
2022/03/26 14:20:57;;;;;;;;;;;14.60;90.60;;;;;;5034342;28;19920;-75
2022/03/26 14:23:23;;;;;;;;;;;14.50;91.20;;;;;;5033207;28;20262;-75
2022/03/26 14:25:50;;;;;;;;;;;14.50;91.60;;;;;;5049317;28;20257;-75
2022/03/26 14:28:16;;;;;;;;;;;14.40;92.30;;;;;;5032744;28;19925;-76
2022/03/26 14:30:42;;;;;;;;;;;14.20;94.50;;;;;;5049536;28;19913;-75
2022/03/26 14:33:11;;;;;;;;;;;13.90;97.40;;;;;;5034114;28;19925;-75
2022/03/26 14:35:38;;;;;;;;;;;13.70;99.90;;;;;;5033974;28;19959;-75